createdAt,value
2022-11-13T00:00:57.911Z,10.30
2022-11-13T00:06:01.661Z,10.24
2022-11-13T00:11:06.968Z,10.27
2022-11-13T00:16:15.747Z,10.17
2022-11-13T00:21:21.199Z,10.11
2022-11-13T00:26:26.542Z,10.12
2022-11-13T00:31:31.452Z,10.15
2022-11-13T00:36:34.762Z,10.19
2022-11-13T00:41:38.316Z,10.19
2022-11-13T00:46:43.312Z,10.20
2022-11-13T00:51:46.545Z,10.11
2022-11-13T00:56:49.921Z,10.18
2022-11-13T01:01:54.713Z,10.24
2022-11-13T01:06:58.209Z,10.23
2022-11-13T01:12:01.568Z,10.18
2022-11-13T01:17:06.516Z,10.24
2022-11-13T01:22:10.169Z,10.16
2022-11-13T01:27:15.800Z,10.12
2022-11-13T01:32:20.809Z,10.06
2022-11-13T01:37:24.617Z,10.06
2022-11-13T01:42:28.079Z,9.84
2022-11-13T01:47:33.089Z,9.74
2022-11-13T01:52:40.192Z,9.78
2022-11-13T01:57:43.586Z,9.78
2022-11-13T02:02:48.454Z,9.82
2022-11-13T02:07:52.104Z,9.73
2022-11-13T02:12:55.592Z,9.75
2022-11-13T02:18:02.328Z,9.73
2022-11-13T02:23:15.988Z,9.58
2022-11-13T02:28:20.731Z,9.57
2022-11-13T02:33:25.205Z,9.61
2022-11-13T02:38:28.955Z,9.46
2022-11-13T02:43:33.941Z,9.48
2022-11-13T02:48:37.087Z,9.61
2022-11-13T02:53:40.334Z,9.58
2022-11-13T02:58:45.105Z,9.48
2022-11-13T03:03:57.429Z,9.41
2022-11-13T03:09:01.664Z,9.26
2022-11-13T03:14:06.400Z,9.29
2022-11-13T03:19:10.200Z,9.31
2022-11-13T03:24:13.573Z,9.30
2022-11-13T03:29:18.328Z,9.28
2022-11-13T03:34:21.536Z,9.31
2022-11-13T03:39:24.901Z,9.32
2022-11-13T03:44:29.643Z,9.38
2022-11-13T03:49:33.049Z,9.24
2022-11-13T03:54:36.331Z,9.03
2022-11-13T03:59:41.202Z,8.91
2022-11-13T04:04:44.875Z,8.89
2022-11-13T04:09:48.260Z,8.86
2022-11-13T04:14:53.161Z,8.91
2022-11-13T04:19:56.436Z,8.89
2022-11-13T04:24:59.832Z,8.71
2022-11-13T04:30:05.667Z,8.51
2022-11-13T04:35:09.992Z,8.42
2022-11-13T04:40:13.686Z,8.53
2022-11-13T04:45:19.628Z,8.59
2022-11-13T04:50:23.490Z,8.63
2022-11-13T04:55:27.017Z,8.75
2022-11-13T05:00:31.693Z,8.70
2022-11-13T05:05:34.908Z,8.61
2022-11-13T05:10:38.588Z,8.45
2022-11-13T05:15:43.414Z,8.35
2022-11-13T05:20:46.389Z,8.43
2022-11-13T05:25:49.667Z,8.49
2022-11-13T05:30:54.724Z,8.56
2022-11-13T05:36:02.664Z,8.66
2022-11-13T05:41:07.894Z,8.67
2022-11-13T05:46:14.729Z,8.38
2022-11-13T05:51:19.858Z,7.80
2022-11-13T05:56:24.973Z,7.51
2022-11-13T06:01:32.443Z,7.17
2022-11-13T06:06:36.320Z,9.89
2022-11-13T06:11:39.608Z,9.58
2022-11-13T06:16:44.301Z,8.98
2022-11-13T06:21:47.904Z,8.30
2022-11-13T06:26:51.376Z,8.50
2022-11-13T06:31:56.144Z,9.22
2022-11-13T06:37:01.290Z,9.83
2022-11-13T06:42:05.491Z,14.30
2022-11-13T06:47:10.349Z,14.77
2022-11-13T06:52:13.998Z,15.19
2022-11-13T06:57:17.411Z,16.96
2022-11-13T07:02:22.010Z,19.98
2022-11-13T07:07:25.103Z,22.10
2022-11-13T07:12:30.060Z,23.48
2022-11-13T07:17:35.010Z,23.62
2022-11-13T07:22:38.397Z,22.93
2022-11-13T07:27:46.304Z,24.36
2022-11-13T07:32:51.044Z,23.19
2022-11-13T07:37:57.103Z,21.84
2022-11-13T07:43:01.276Z,22.78
2022-11-13T07:48:06.422Z,24.04
2022-11-13T07:53:11.265Z,24.49
2022-11-13T07:58:15.114Z,23.66
2022-11-13T08:03:19.941Z,23.48
2022-11-13T08:08:23.512Z,23.84
2022-11-13T08:13:26.891Z,23.34
2022-11-13T08:18:32.923Z,21.83
2022-11-13T08:23:36.202Z,21.62
2022-11-13T08:28:39.729Z,18.81
2022-11-13T08:33:44.992Z,17.76
2022-11-13T08:38:50.049Z,16.99
2022-11-13T08:43:53.337Z,15.49
2022-11-13T08:48:57.989Z,13.93
2022-11-13T08:54:01.015Z,13.11
2022-11-13T08:59:04.539Z,12.39
2022-11-13T09:04:09.357Z,12.14
2022-11-13T09:09:12.842Z,11.60
2022-11-13T09:14:17.361Z,11.14
2022-11-13T09:19:22.863Z,10.76
2022-11-13T09:24:26.228Z,9.97
2022-11-13T09:29:29.768Z,9.80
2022-11-13T09:34:34.665Z,9.60
2022-11-13T09:39:38.209Z,9.45
2022-11-13T09:44:46.418Z,9.42
2022-11-13T09:49:56.367Z,9.30
2022-11-13T09:55:00.050Z,9.43
2022-11-13T10:00:06.704Z,8.98
2022-11-13T10:05:16.158Z,8.22
2022-11-13T10:10:37.994Z,7.56
2022-11-13T10:15:44.805Z,7.37
2022-11-13T10:20:54.427Z,7.37
2022-11-13T10:26:01.659Z,7.25
2022-11-13T10:31:05.028Z,7.12
2022-11-13T10:36:22.456Z,7.03
2022-11-13T10:41:25.806Z,6.98
2022-11-13T10:46:31.334Z,6.93
2022-11-13T10:51:36.719Z,6.99
2022-11-13T10:56:40.330Z,7.08
2022-11-13T11:01:45.948Z,7.20
2022-11-13T11:07:19.669Z,7.25
2022-11-13T11:12:19.087Z,7.31
2022-11-13T11:17:25.764Z,7.49
2022-11-13T11:22:34.598Z,7.27
2022-11-13T11:27:42.739Z,6.98
2022-11-13T11:32:51.499Z,6.83
2022-11-13T11:38:04.574Z,6.79
2022-11-13T11:43:18.847Z,7.22
2022-11-13T11:48:27.597Z,7.19
2022-11-13T11:53:39.765Z,7.04
2022-11-13T11:59:02.799Z,7.12
2022-11-13T12:04:16.454Z,7.27
2022-11-13T12:09:27.974Z,7.36
2022-11-13T12:14:45.131Z,7.32
2022-11-13T12:19:55.670Z,7.17
2022-11-13T12:25:15.400Z,7.17
2022-11-13T12:30:22.527Z,6.98
2022-11-13T12:35:28.193Z,6.79
2022-11-13T12:40:44.008Z,6.69
2022-11-13T12:45:52.757Z,6.69
2022-11-13T12:51:01.606Z,6.71
2022-11-13T12:56:07.059Z,6.51
2022-11-13T13:01:18.842Z,6.26
2022-11-13T13:06:39.905Z,6.30
2022-11-13T13:11:55.140Z,6.24
2022-11-13T13:17:07.157Z,6.29
2022-11-13T13:22:11.750Z,6.22
2022-11-13T13:27:27.699Z,6.36
2022-11-13T13:32:44.207Z,6.29
2022-11-13T13:37:57.684Z,6.19
2022-11-13T13:43:24.772Z,6.03
2022-11-13T13:48:32.067Z,5.90
2022-11-13T13:53:37.624Z,5.86
2022-11-13T13:58:42.541Z,5.90
2022-11-13T14:03:45.667Z,5.99
2022-11-13T14:08:49.747Z,5.98
2022-11-13T14:13:54.565Z,6.08
2022-11-13T14:19:05.193Z,5.96
2022-11-13T14:24:15.451Z,5.79
2022-11-13T14:29:36.660Z,5.64
2022-11-13T14:34:44.207Z,5.46
2022-11-13T14:39:49.955Z,5.50
2022-11-13T14:44:54.728Z,5.62
2022-11-13T14:50:20.177Z,5.70
2022-11-13T14:55:25.682Z,5.86
2022-11-13T15:00:33.301Z,5.84
2022-11-13T15:05:36.698Z,5.79
2022-11-13T15:10:40.096Z,5.81
2022-11-13T15:15:46.566Z,5.80
2022-11-13T15:20:50.334Z,5.65
2022-11-13T15:25:53.614Z,5.54
2022-11-13T15:30:58.972Z,5.47
2022-11-13T15:36:02.583Z,5.27
2022-11-13T15:41:13.369Z,5.17
2022-11-13T15:46:22.132Z,5.18
2022-11-13T15:51:35.272Z,5.04
2022-11-13T15:56:38.833Z,5.16
2022-11-13T16:01:43.989Z,5.23
2022-11-13T16:06:47.565Z,5.18
2022-11-13T16:11:53.274Z,5.45
2022-11-13T16:16:58.145Z,5.46
2022-11-13T16:22:01.378Z,5.36
2022-11-13T16:27:05.115Z,5.18
2022-11-13T16:32:15.844Z,5.27
2022-11-13T16:37:20.958Z,5.29
2022-11-13T16:42:29.787Z,5.41
2022-11-13T16:47:35.595Z,5.52
2022-11-13T16:52:39.048Z,5.64
2022-11-13T16:57:43.245Z,5.56
2022-11-13T17:02:51.059Z,5.65
2022-11-13T17:07:58.893Z,5.64
2022-11-13T17:13:02.447Z,5.65
2022-11-13T17:18:07.517Z,5.71
2022-11-13T17:23:15.770Z,5.61
2022-11-13T17:28:19.322Z,5.49
2022-11-13T17:33:23.981Z,5.37
2022-11-13T17:38:27.720Z,5.39
2022-11-13T17:43:31.459Z,5.40
2022-11-13T17:48:37.370Z,5.48
2022-11-13T17:53:40.757Z,5.38
2022-11-13T17:58:45.982Z,5.38
2022-11-13T18:03:56.023Z,5.34
2022-11-13T18:08:59.298Z,5.37
2022-11-13T18:14:03.006Z,5.40
2022-11-13T18:19:09.681Z,5.44
2022-11-13T18:24:17.860Z,5.37
2022-11-13T18:29:22.094Z,5.22
2022-11-13T18:34:28.566Z,5.15
2022-11-13T18:39:32.045Z,5.02
2022-11-13T18:44:35.746Z,5.10
2022-11-13T18:49:40.464Z,5.08
2022-11-13T18:54:43.715Z,4.99
2022-11-13T18:59:47.238Z,4.95
2022-11-13T19:04:52.051Z,4.88
2022-11-13T19:09:57.193Z,4.91
2022-11-13T19:15:00.567Z,4.56
2022-11-13T19:20:06.214Z,4.67
2022-11-13T19:25:10.064Z,4.53
2022-11-13T19:30:14.115Z,4.35
2022-11-13T19:35:18.943Z,4.37
2022-11-13T19:40:22.197Z,4.61
2022-11-13T19:45:25.490Z,4.61
2022-11-13T19:50:30.158Z,4.58
2022-11-13T19:55:35.005Z,4.42
2022-11-13T20:00:38.331Z,4.56
2022-11-13T20:05:43.392Z,4.61
2022-11-13T20:10:46.741Z,4.62
2022-11-13T20:15:54.790Z,4.71
2022-11-13T20:21:00.033Z,4.74
2022-11-13T20:26:06.810Z,4.69
2022-11-13T20:31:19.942Z,4.58
2022-11-13T20:36:25.422Z,4.45
2022-11-13T20:41:28.795Z,4.30
2022-11-13T20:46:32.648Z,4.37
2022-11-13T20:51:37.308Z,4.43
2022-11-13T20:56:40.743Z,4.40
2022-11-13T21:01:44.286Z,4.32
2022-11-13T21:06:49.231Z,4.36
2022-11-13T21:11:52.690Z,4.34
2022-11-13T21:16:56.305Z,4.38
2022-11-13T21:22:01.346Z,4.39
2022-11-13T21:27:04.709Z,4.40
2022-11-13T21:32:08.264Z,4.33
2022-11-13T21:37:14.596Z,4.43
2022-11-13T21:42:18.027Z,3.99
2022-11-13T21:47:21.522Z,3.54
2022-11-13T21:52:26.177Z,3.35
2022-11-13T21:57:29.557Z,2.92
2022-11-13T22:02:32.863Z,2.66
2022-11-13T22:07:37.546Z,2.71
2022-11-13T22:12:40.937Z,2.65
2022-11-13T22:17:44.197Z,2.58
2022-11-13T22:22:48.966Z,2.51
2022-11-13T22:27:52.414Z,2.42
2022-11-13T22:32:55.753Z,2.30
2022-11-13T22:38:00.800Z,2.10
2022-11-13T22:43:04.158Z,2.04
2022-11-13T22:48:07.566Z,2.14
2022-11-13T22:53:14.868Z,2.32
2022-11-13T22:58:18.511Z,2.52
2022-11-13T23:03:21.918Z,2.60
2022-11-13T23:08:27.128Z,2.70
2022-11-13T23:13:30.584Z,2.74
2022-11-13T23:18:34.439Z,2.84
2022-11-13T23:23:39.190Z,2.97
2022-11-13T23:28:42.590Z,3.09
2022-11-13T23:33:46.161Z,3.08
2022-11-13T23:38:51.421Z,3.16
2022-11-13T23:44:08.251Z,3.04
2022-11-13T23:49:12.850Z,2.72
2022-11-13T23:54:17.657Z,2.78
2022-11-13T23:59:20.956Z,2.67
